Time;durP1;ratioP1;P1;durP2;ratioP2;P2;SDS_P1;SDS_P2;PMS_P1;PMS_P2;Temp;Humidity;BMP_temperature;BMP_pressure;BME280_temperature;BME280_humidity;BME280_pressure;Samples;Min_cycle;Max_cycle;Signal;HPM_P1;HPM_P2
2022/06/26 00:00:54;;;;;;;2.20;2.00;;;23.70;63.60;;;;;;21046127;28;20379;-79
2022/06/26 00:10:55;;;;;;;3.70;2.30;;;23.70;63.70;;;;;;21061067;28;20035;-80
2022/06/26 00:20:56;;;;;;;3.78;2.40;;;23.70;63.90;;;;;;21076980;28;20105;-79
2022/06/26 00:30:56;;;;;;;2.70;2.28;;;23.60;63.90;;;;;;21135112;28;20466;-79
2022/06/26 00:40:57;;;;;;;2.75;1.88;;;23.60;64.00;;;;;;21342392;22;20045;-77
2022/06/26 00:50:57;;;;;;;2.33;1.98;;;23.50;64.10;;;;;;20803622;28;20387;-76
2022/06/26 01:00:58;;;;;;;4.35;2.58;;;23.50;64.20;;;;;;20778177;28;20145;-76
2022/06/26 01:10:59;;;;;;;4.18;3.08;;;23.50;64.20;;;;;;20746136;28;20041;-77
2022/06/26 01:20:59;;;;;;;3.58;2.50;;;23.50;64.20;;;;;;20786342;28;20044;-76
2022/06/26 01:31:00;;;;;;;3.20;2.60;;;23.50;64.30;;;;;;20766461;28;20032;-76
2022/06/26 01:41:01;;;;;;;4.57;2.87;;;23.50;64.40;;;;;;20775532;28;20418;-76
2022/06/26 01:51:02;;;;;;;3.50;2.95;;;23.40;64.40;;;;;;20804822;28;20287;-76
2022/06/26 02:01:05;;;;;;;3.35;3.00;;;23.40;64.50;;;;;;20776763;28;20139;-76
2022/06/26 02:21:27;;;;;;;4.35;2.67;;;23.40;64.60;;;;;;20794242;28;20037;-76
2022/06/26 02:31:30;;;;;;;3.33;2.67;;;23.30;64.50;;;;;;20778662;28;20065;-76
2022/06/26 02:41:31;;;;;;;3.30;2.63;;;23.30;64.50;;;;;;20812752;28;20048;-76
2022/06/26 02:51:31;;;;;;;3.50;3.20;;;23.20;64.40;;;;;;20787076;28;20029;-76
2022/06/26 03:01:32;;;;;;;3.08;2.78;;;23.20;64.40;;;;;;20789747;28;20297;-76
2022/06/26 03:11:48;;;;;;;3.42;2.88;;;23.10;64.30;;;;;;20782262;28;20083;-76
2022/06/26 03:21:49;;;;;;;3.87;2.63;;;23.10;64.20;;;;;;20738349;28;20446;-76
2022/06/26 03:31:50;;;;;;;3.95;3.15;;;23.10;64.10;;;;;;20786444;28;20288;-77
2022/06/26 03:42:02;;;;;;;4.93;3.75;;;23.10;64.10;;;;;;20820017;28;20399;-77
2022/06/26 03:52:10;;;;;;;3.55;3.10;;;23.00;64.00;;;;;;20764278;28;20048;-76
2022/06/26 04:02:12;;;;;;;4.95;3.28;;;23.00;64.10;;;;;;20749485;28;20049;-77
2022/06/26 04:12:13;;;;;;;3.60;3.30;;;23.00;64.20;;;;;;20779138;28;20538;-76
2022/06/26 04:22:16;;;;;;;3.25;2.95;;;23.00;64.30;;;;;;20764089;28;20041;-77
2022/06/26 04:32:17;;;;;;;3.72;3.10;;;23.00;64.40;;;;;;20784680;28;20052;-77
2022/06/26 04:42:19;;;;;;;4.40;3.35;;;22.90;64.60;;;;;;20786472;28;20107;-76
2022/06/26 04:52:20;;;;;;;4.82;3.63;;;22.90;64.90;;;;;;20778654;28;20037;-76
2022/06/26 05:02:24;;;;;;;4.38;2.90;;;22.90;65.30;;;;;;20778266;28;20137;-77
2022/06/26 05:12:51;;;;;;;4.07;3.28;;;22.80;65.80;;;;;;20763620;28;20052;-76
2022/06/26 05:23:07;;;;;;;5.00;3.85;;;22.90;66.20;;;;;;20777190;28;20052;-75
2022/06/26 05:33:11;;;;;;;3.38;3.08;;;22.90;67.00;;;;;;20743075;28;20079;-76
2022/06/26 05:43:12;;;;;;;4.53;3.80;;;22.90;67.70;;;;;;20768863;28;20365;-76
2022/06/26 05:53:15;;;;;;;5.28;3.58;;;23.00;67.90;;;;;;20730143;28;20025;-77
2022/06/26 06:03:34;;;;;;;3.92;2.70;;;23.00;67.90;;;;;;20776093;28;20042;-77
2022/06/26 06:13:35;;;;;;;2.97;2.47;;;23.10;67.50;;;;;;20765844;28;20056;-76
2022/06/26 06:23:36;;;;;;;4.03;2.22;;;23.30;67.10;;;;;;20776114;28;20373;-76
2022/06/26 06:33:37;;;;;;;3.05;1.95;;;23.30;66.60;;;;;;20814057;28;20117;-76
2022/06/26 06:43:39;;;;;;;5.25;2.10;;;23.40;66.20;;;;;;20801445;28;20037;-75
2022/06/26 06:54:12;;;;;;;2.30;2.10;;;23.50;65.90;;;;;;20767429;28;20072;-72
2022/06/26 07:04:13;;;;;;;2.60;2.17;;;23.50;65.60;;;;;;20772135;28;20052;-73
2022/06/26 07:14:13;;;;;;;2.40;1.67;;;23.60;65.50;;;;;;20770274;28;20025;-76
2022/06/26 07:24:15;;;;;;;2.85;1.85;;;23.60;65.20;;;;;;20771138;28;20041;-71
2022/06/26 07:34:32;;;;;;;2.55;2.10;;;23.50;64.90;;;;;;20786091;28;20033;-71
2022/06/26 07:44:35;;;;;;;4.00;1.70;;;23.60;64.70;;;;;;20798136;28;20413;-75
2022/06/26 07:54:36;;;;;;;2.45;2.05;;;23.70;64.50;;;;;;20755499;28;20043;-73
2022/06/26 08:04:36;;;;;;;4.10;1.70;;;23.70;65.00;;;;;;20753420;28;20125;-75
2022/06/26 08:14:37;;;;;;;1.60;1.50;;;23.70;64.10;;;;;;20791032;28;20200;-77
2022/06/26 08:24:39;;;;;;;4.93;1.88;;;23.70;63.90;;;;;;20747819;28;20408;-71
2022/06/26 08:34:40;;;;;;;2.40;1.77;;;23.80;63.80;;;;;;20785720;28;20499;-74
2022/06/26 08:44:42;;;;;;;1.98;1.60;;;23.80;63.60;;;;;;20792141;28;20044;-73
2022/06/26 08:54:43;;;;;;;1.90;1.63;;;23.80;63.50;;;;;;20761503;28;20474;-76
2022/06/26 09:04:43;;;;;;;4.03;1.60;;;23.90;63.40;;;;;;20765405;28;20033;-74
2022/06/26 09:14:44;;;;;;;5.97;2.40;;;23.90;63.30;;;;;;20781594;28;20338;-73
2022/06/26 09:24:53;;;;;;;5.32;1.80;;;23.90;63.30;;;;;;20751512;28;20439;-74
2022/06/26 09:34:54;;;;;;;2.15;1.95;;;23.90;63.90;;;;;;20779698;28;20041;-76
2022/06/26 09:44:55;;;;;;;3.28;1.60;;;23.90;63.10;;;;;;20825686;28;20366;-74
2022/06/26 09:54:56;;;;;;;2.38;1.50;;;24.00;63.00;;;;;;20803444;28;20552;-73
2022/06/26 10:15:29;;;;;;;4.13;1.77;;;24.00;62.70;;;;;;20777972;28;20030;-74
2022/06/26 10:25:30;;;;;;;1.80;1.52;;;24.00;62.70;;;;;;20773922;28;20048;-73
2022/06/26 10:35:38;;;;;;;3.55;1.52;;;24.00;62.70;;;;;;20778974;28;20085;-72
2022/06/26 10:45:40;;;;;;;2.25;1.42;;;24.00;62.60;;;;;;20795377;28;20399;-73
2022/06/26 10:55:46;;;;;;;2.00;1.58;;;24.00;62.50;;;;;;20771847;28;20038;-73
2022/06/26 11:06:14;;;;;;;3.25;1.13;;;24.00;62.40;;;;;;20778784;28;20048;-76
2022/06/26 11:16:15;;;;;;;1.88;1.20;;;24.10;62.30;;;;;;20777733;28;20045;-71
2022/06/26 11:26:16;;;;;;;1.50;1.20;;;24.10;62.10;;;;;;20750478;28;20072;-73
2022/06/26 11:36:17;;;;;;;4.10;1.40;;;24.10;62.00;;;;;;20762886;28;20488;-72
2022/06/26 11:46:18;;;;;;;1.88;1.20;;;24.10;62.00;;;;;;20790036;28;20299;-73
2022/06/26 11:56:20;;;;;;;2.38;1.33;;;24.10;61.90;;;;;;20777513;28;20494;-73
2022/06/26 12:06:40;;;;;;;2.45;1.48;;;24.10;61.80;;;;;;20773190;28;20041;-74
2022/06/26 12:16:58;;;;;;;2.47;1.30;;;24.10;61.70;;;;;;20759803;28;20065;-75
2022/06/26 12:27:01;;;;;;;1.60;1.25;;;24.10;61.50;;;;;;20772424;28;20481;-71
2022/06/26 12:37:01;;;;;;;1.85;1.17;;;24.20;61.50;;;;;;20750484;28;20550;-72
2022/06/26 12:47:02;;;;;;;1.17;0.95;;;24.20;61.60;;;;;;20792929;28;20041;-71
2022/06/26 12:57:03;;;;;;;1.38;1.00;;;24.20;61.60;;;;;;20777687;28;20106;-72
2022/06/26 13:07:04;;;;;;;0.73;0.70;;;24.20;61.60;;;;;;20765532;28;20034;-72
2022/06/26 13:17:05;;;;;;;3.25;1.48;;;24.30;61.30;;;;;;20727084;28;20037;-72
2022/06/26 13:27:05;;;;;;;1.95;1.25;;;24.30;61.00;;;;;;20745313;28;20065;-72
2022/06/26 13:37:06;;;;;;;2.93;1.63;;;24.30;61.60;;;;;;20755861;28;20030;-71
2022/06/26 13:47:07;;;;;;;2.35;1.05;;;24.30;61.00;;;;;;20809360;28;20292;-73
2022/06/26 13:57:07;;;;;;;3.55;1.35;;;24.30;60.90;;;;;;20758990;28;20117;-71
2022/06/26 14:07:08;;;;;;;3.35;1.20;;;24.30;60.90;;;;;;20791714;28;20040;-73
2022/06/26 14:17:08;;;;;;;3.33;1.20;;;24.30;60.90;;;;;;20775151;28;20120;-73
2022/06/26 14:27:09;;;;;;;1.30;1.20;;;24.30;61.10;;;;;;20772141;28;20048;-73
2022/06/26 14:37:10;;;;;;;2.58;1.30;;;24.30;61.10;;;;;;20782427;28;20496;-73
2022/06/26 14:47:10;;;;;;;1.30;1.10;;;24.30;61.20;;;;;;20809569;28;20136;-73
2022/06/26 14:57:11;;;;;;;2.90;1.63;;;24.30;61.20;;;;;;20752431;28;20044;-74
2022/06/26 15:07:12;;;;;;;4.07;1.52;;;24.30;61.30;;;;;;20739560;28;20056;-73
2022/06/26 15:17:13;;;;;;;1.70;1.40;;;24.30;61.30;;;;;;20771589;28;20132;-73
2022/06/26 15:27:13;;;;;;;2.27;1.53;;;24.40;61.40;;;;;;20766851;28;20494;-74
2022/06/26 15:37:14;;;;;;;1.98;1.30;;;24.40;61.50;;;;;;20780272;28;20260;-73
2022/06/26 15:47:15;;;;;;;2.38;1.70;;;24.50;61.60;;;;;;20806532;28;20052;-73
2022/06/26 15:57:16;;;;;;;5.90;2.10;;;24.60;61.60;;;;;;20745839;28;20487;-73
2022/06/26 16:07:16;;;;;;;3.10;2.00;;;24.70;61.70;;;;;;20771432;28;20354;-73
2022/06/26 16:17:17;;;;;;;5.37;2.20;;;24.70;61.60;;;;;;20788593;28;20284;-75
2022/06/26 16:27:18;;;;;;;3.97;1.73;;;24.70;61.70;;;;;;20752096;28;20349;-75
2022/06/26 16:37:18;;;;;;;3.97;2.13;;;24.80;61.70;;;;;;20767002;28;20064;-74
2022/06/26 16:47:19;;;;;;;3.63;2.17;;;24.90;61.60;;;;;;20763350;28;20044;-72
2022/06/26 16:57:22;;;;;;;2.42;1.80;;;24.90;61.60;;;;;;20780853;28;20037;-74
2022/06/26 17:07:22;;;;;;;2.08;1.88;;;24.90;61.60;;;;;;20771235;28;20045;-72
2022/06/26 17:17:24;;;;;;;2.58;2.03;;;24.90;61.60;;;;;;20797127;28;20057;-73
2022/06/26 17:27:25;;;;;;;2.00;1.80;;;24.80;61.70;;;;;;20794924;28;20537;-72
2022/06/26 17:37:25;;;;;;;2.58;1.75;;;24.80;61.70;;;;;;20776195;28;20036;-71
2022/06/26 17:47:44;;;;;;;2.00;1.80;;;24.80;61.70;;;;;;20783764;28;20112;-73
2022/06/26 17:57:45;;;;;;;4.35;2.63;;;24.70;61.70;;;;;;20742363;28;20069;-73
2022/06/26 18:07:46;;;;;;;2.55;1.60;;;24.70;61.80;;;;;;20764322;28;20128;-72
2022/06/26 18:17:47;;;;;;;4.55;2.40;;;24.70;61.80;;;;;;20798928;28;20433;-73
2022/06/26 18:27:49;;;;;;;3.33;2.22;;;24.80;61.80;;;;;;20774785;28;20434;-72
2022/06/26 18:37:50;;;;;;;3.28;2.10;;;24.80;61.80;;;;;;20744576;28;20041;-73
2022/06/26 18:47:50;;;;;;;3.30;2.63;;;24.80;62.00;;;;;;20812721;28;20034;-74
2022/06/26 18:57:51;;;;;;;4.18;2.50;;;24.80;62.10;;;;;;20753234;28;20109;-73
2022/06/26 19:07:52;;;;;;;3.63;2.80;;;24.80;62.20;;;;;;20785591;28;20033;-72
2022/06/26 19:17:54;;;;;;;4.43;2.47;;;24.80;62.40;;;;;;20805784;28;20160;-72
2022/06/26 19:27:54;;;;;;;3.17;2.90;;;24.80;62.60;;;;;;20765650;28;20304;-73
2022/06/26 19:37:55;;;;;;;6.72;3.20;;;24.90;62.90;;;;;;20765752;28;20049;-71
2022/06/26 19:47:56;;;;;;;4.00;2.95;;;24.90;63.10;;;;;;20795975;28;20116;-71
2022/06/26 19:57:56;;;;;;;5.38;2.90;;;24.80;63.40;;;;;;20772069;28;20044;-72
2022/06/26 20:07:57;;;;;;;4.47;3.13;;;24.80;63.70;;;;;;20747819;28;20030;-71
2022/06/26 20:17:58;;;;;;;3.42;2.95;;;24.80;63.80;;;;;;20759046;28;20034;-72
2022/06/26 20:27:59;;;;;;;3.28;2.75;;;24.80;63.70;;;;;;20765316;28;20718;-72
2022/06/26 20:37:59;;;;;;;3.65;3.20;;;24.80;63.80;;;;;;20764083;28;20049;-72
2022/06/26 20:48:00;;;;;;;3.33;2.72;;;24.80;63.70;;;;;;20779315;28;20034;-72
2022/06/26 20:58:01;;;;;;;3.53;2.90;;;24.80;63.90;;;;;;20762208;28;20069;-72
2022/06/26 21:08:02;;;;;;;2.47;2.25;;;24.80;63.90;;;;;;20753160;28;20116;-71
2022/06/26 21:18:03;;;;;;;4.45;2.83;;;24.80;63.70;;;;;;20770318;28;20049;-73
2022/06/26 21:28:03;;;;;;;3.33;3.00;;;24.80;63.70;;;;;;20773544;28;20044;-73
2022/06/26 21:38:04;;;;;;;3.53;2.70;;;24.80;63.70;;;;;;20743017;28;20399;-72
2022/06/26 21:48:05;;;;;;;3.15;2.22;;;24.70;63.80;;;;;;20808661;28;20040;-72
2022/06/26 21:58:06;;;;;;;4.65;2.55;;;24.70;64.50;;;;;;20759343;28;20136;-72
2022/06/26 22:08:06;;;;;;;2.63;2.38;;;24.80;63.70;;;;;;20774286;28;20125;-72
2022/06/26 22:18:07;;;;;;;2.95;2.30;;;24.80;63.70;;;;;;20776899;28;20034;-72
2022/06/26 22:28:07;;;;;;;4.03;2.53;;;24.70;63.60;;;;;;20774812;28;20044;-72
2022/06/26 22:38:08;;;;;;;3.55;2.05;;;24.80;63.60;;;;;;20790409;28;20053;-71
2022/06/26 22:48:09;;;;;;;3.75;2.72;;;24.80;63.60;;;;;;20789356;28;20128;-72
2022/06/26 22:58:09;;;;;;;2.78;2.47;;;24.80;63.60;;;;;;20754041;28;20477;-73
2022/06/26 23:08:10;;;;;;;3.13;2.57;;;24.80;63.60;;;;;;20766434;28;20064;-71
2022/06/26 23:18:10;;;;;;;3.67;2.25;;;24.80;63.70;;;;;;20754177;28;20042;-72
2022/06/26 23:28:11;;;;;;;2.83;2.40;;;24.70;63.70;;;;;;20761949;28;20369;-72
2022/06/26 23:38:11;;;;;;;3.28;2.33;;;24.70;63.70;;;;;;20788287;28;20385;-71
2022/06/26 23:48:12;;;;;;;2.50;2.30;;;24.70;63.80;;;;;;20796527;28;20759;-72
2022/06/26 23:58:13;;;;;;;3.38;2.72;;;24.70;63.80;;;;;;20750745;28;20042;-73
